LELC

San Javier Airport

San Javier, Spain
TAF LELC 210500Z 2106/2206 34005KT 9999 FEW020 TX29/2113Z TN20/2205Z BECMG 2107/2109 08010KT BECMG 2119/2121 01005KT
Issued Valid From Valid To
Jun-21 @ 05:00 UTC
(5 hours ago)
Jun-21 @ 06:00 UTC
(4 hours ago)
Jun-22 @ 06:00 UTC
(in 20 hours)
Expired Click to View Jun-21 @ 06:00 to Jun-21 @ 07:00
TAF LELC 210500Z 2106/2206 34005KT 9999 FEW020 TX29/2113Z TN20/2205Z
Wind Visibility Clouds
340° at 5 knots 10,000+ meters
  • Few at 2,000' AGL
Becoming Jun-21 @ 07:00 to Jun-21 @ 19:00
BECMG 2107/2109 08010KT
Wind Visibility Clouds
80° at 10 knots 10,000+ meters
  • Few at 2,000' AGL
Becoming Jun-21 @ 19:00 to Jun-22 @ 06:00
BECMG 2119/2121 01005KT
Wind Visibility Clouds
10° at 5 knots 10,000+ meters
  • Few at 2,000' AGL
TAF LELC 210500Z 2106/2206 34005KT 9999 FEW020 TX29/2113Z TN20/2205Z BECMG 2107/2109 08010KT BECMG 2119/2121 01005KT
Issued Jun-21 @ 05:00 UTC
(5 hours ago)
Valid From Jun-21 @ 06:00 UTC
(4 hours ago)
Valid To Jun-22 @ 06:00 UTC
(in 20 hours)
Jun-21 @ 06:00 - Jun-21 @ 07:00
Wind Visibility
340° at 5 knots 10,000+ meters
Clouds
  • Few at 2,000' AGL
Becoming Jun-21 @ 07:00 - Jun-21 @ 19:00
Wind Visibility
80° at 10 knots 10,000+ meters
Clouds
  • Few at 2,000' AGL
Becoming Jun-21 @ 19:00 - Jun-22 @ 06:00
Wind Visibility
10° at 5 knots 10,000+ meters
Clouds
  • Few at 2,000' AGL